sensor_id;sensor_type;location;lat;lon;timestamp;P1;durP1;ratioP1;P2;durP2;ratioP2
75993;SDS011;64680;53.800;9.988;2022-12-18T00:01:27;20.10;;;10.52;;
75993;SDS011;64680;53.800;9.988;2022-12-18T00:03:56;21.25;;;10.77;;
75993;SDS011;64680;53.800;9.988;2022-12-18T00:06:22;23.60;;;10.43;;
75993;SDS011;64680;53.800;9.988;2022-12-18T00:08:49;25.70;;;11.48;;
75993;SDS011;64680;53.800;9.988;2022-12-18T00:11:17;25.88;;;12.55;;
75993;SDS011;64680;53.800;9.988;2022-12-18T00:13:44;23.17;;;10.68;;
75993;SDS011;64680;53.800;9.988;2022-12-18T00:16:11;23.38;;;10.63;;
75993;SDS011;64680;53.800;9.988;2022-12-18T00:18:38;22.40;;;11.68;;
75993;SDS011;64680;53.800;9.988;2022-12-18T00:21:06;20.70;;;10.68;;
75993;SDS011;64680;53.800;9.988;2022-12-18T00:23:34;22.05;;;10.38;;
75993;SDS011;64680;53.800;9.988;2022-12-18T00:26:05;24.02;;;11.48;;
75993;SDS011;64680;53.800;9.988;2022-12-18T00:28:32;24.33;;;12.45;;
75993;SDS011;64680;53.800;9.988;2022-12-18T00:31:08;25.15;;;12.90;;
75993;SDS011;64680;53.800;9.988;2022-12-18T00:33:36;21.77;;;11.00;;
75993;SDS011;64680;53.800;9.988;2022-12-18T00:36:06;24.55;;;11.45;;
75993;SDS011;64680;53.800;9.988;2022-12-18T00:38:34;28.27;;;12.30;;
75993;SDS011;64680;53.800;9.988;2022-12-18T00:41:01;20.65;;;10.65;;
75993;SDS011;64680;53.800;9.988;2022-12-18T00:43:27;21.25;;;10.13;;
75993;SDS011;64680;53.800;9.988;2022-12-18T00:45:53;20.23;;;9.98;;
75993;SDS011;64680;53.800;9.988;2022-12-18T00:48:19;23.63;;;10.68;;
75993;SDS011;64680;53.800;9.988;2022-12-18T00:50:45;20.45;;;10.15;;
75993;SDS011;64680;53.800;9.988;2022-12-18T00:53:11;18.27;;;9.35;;
75993;SDS011;64680;53.800;9.988;2022-12-18T00:55:38;20.08;;;10.20;;
75993;SDS011;64680;53.800;9.988;2022-12-18T00:58:05;19.65;;;9.63;;
75993;SDS011;64680;53.800;9.988;2022-12-18T01:00:30;23.33;;;11.13;;
75993;SDS011;64680;53.800;9.988;2022-12-18T01:02:56;21.45;;;10.20;;
75993;SDS011;64680;53.800;9.988;2022-12-18T01:05:21;22.48;;;10.15;;
75993;SDS011;64680;53.800;9.988;2022-12-18T01:07:47;23.85;;;11.30;;
75993;SDS011;64680;53.800;9.988;2022-12-18T01:10:13;25.63;;;10.23;;
75993;SDS011;64680;53.800;9.988;2022-12-18T01:12:38;21.73;;;10.88;;
75993;SDS011;64680;53.800;9.988;2022-12-18T01:15:04;20.17;;;9.32;;
75993;SDS011;64680;53.800;9.988;2022-12-18T01:17:31;22.98;;;10.57;;
75993;SDS011;64680;53.800;9.988;2022-12-18T01:19:57;22.95;;;10.05;;
75993;SDS011;64680;53.800;9.988;2022-12-18T01:22:23;23.42;;;10.15;;
75993;SDS011;64680;53.800;9.988;2022-12-18T01:24:48;23.58;;;11.43;;
75993;SDS011;64680;53.800;9.988;2022-12-18T01:27:14;19.52;;;10.48;;
75993;SDS011;64680;53.800;9.988;2022-12-18T01:29:39;19.70;;;9.23;;
75993;SDS011;64680;53.800;9.988;2022-12-18T01:32:05;25.73;;;10.73;;
75993;SDS011;64680;53.800;9.988;2022-12-18T01:34:31;23.60;;;10.90;;
75993;SDS011;64680;53.800;9.988;2022-12-18T01:36:56;16.40;;;8.98;;
75993;SDS011;64680;53.800;9.988;2022-12-18T01:39:22;24.38;;;11.05;;
75993;SDS011;64680;53.800;9.988;2022-12-18T01:41:48;19.02;;;10.32;;
75993;SDS011;64680;53.800;9.988;2022-12-18T01:47:18;23.63;;;10.60;;
75993;SDS011;64680;53.800;9.988;2022-12-18T01:49:46;22.38;;;9.68;;
75993;SDS011;64680;53.800;9.988;2022-12-18T01:52:12;22.38;;;10.15;;
75993;SDS011;64680;53.800;9.988;2022-12-18T01:54:39;22.90;;;10.23;;
75993;SDS011;64680;53.800;9.988;2022-12-18T01:57:04;25.42;;;10.88;;
75993;SDS011;64680;53.800;9.988;2022-12-18T01:59:30;21.52;;;9.65;;
75993;SDS011;64680;53.800;9.988;2022-12-18T02:01:59;19.88;;;8.70;;
75993;SDS011;64680;53.800;9.988;2022-12-18T02:04:26;18.70;;;8.90;;
75993;SDS011;64680;53.800;9.988;2022-12-18T02:12:53;18.05;;;9.15;;
75993;SDS011;64680;53.800;9.988;2022-12-18T02:18:37;18.83;;;8.63;;
75993;SDS011;64680;53.800;9.988;2022-12-18T02:24:37;19.88;;;9.55;;
75993;SDS011;64680;53.800;9.988;2022-12-18T02:27:08;20.33;;;10.38;;
75993;SDS011;64680;53.800;9.988;2022-12-18T02:29:39;21.75;;;9.48;;
75993;SDS011;64680;53.800;9.988;2022-12-18T02:32:35;20.13;;;9.43;;
75993;SDS011;64680;53.800;9.988;2022-12-18T02:35:07;21.92;;;10.15;;
75993;SDS011;64680;53.800;9.988;2022-12-18T02:37:42;19.98;;;9.55;;
75993;SDS011;64680;53.800;9.988;2022-12-18T02:40:09;19.50;;;9.57;;
75993;SDS011;64680;53.800;9.988;2022-12-18T02:42:36;20.17;;;8.93;;
75993;SDS011;64680;53.800;9.988;2022-12-18T02:45:01;21.17;;;8.77;;
75993;SDS011;64680;53.800;9.988;2022-12-18T02:47:28;21.52;;;9.73;;
75993;SDS011;64680;53.800;9.988;2022-12-18T02:52:47;16.13;;;7.75;;
75993;SDS011;64680;53.800;9.988;2022-12-18T02:58:25;23.15;;;11.13;;
75993;SDS011;64680;53.800;9.988;2022-12-18T03:00:45;19.40;;;9.02;;
75993;SDS011;64680;53.800;9.988;2022-12-18T03:03:21;17.63;;;7.72;;
75993;SDS011;64680;53.800;9.988;2022-12-18T03:05:55;18.00;;;8.65;;
75993;SDS011;64680;53.800;9.988;2022-12-18T03:08:27;18.15;;;9.57;;
75993;SDS011;64680;53.800;9.988;2022-12-18T03:11:00;18.83;;;9.25;;
75993;SDS011;64680;53.800;9.988;2022-12-18T03:13:31;19.27;;;8.73;;
75993;SDS011;64680;53.800;9.988;2022-12-18T03:16:00;18.92;;;8.55;;
75993;SDS011;64680;53.800;9.988;2022-12-18T03:18:34;19.70;;;9.57;;
75993;SDS011;64680;53.800;9.988;2022-12-18T03:21:09;23.52;;;10.10;;
75993;SDS011;64680;53.800;9.988;2022-12-18T03:23:39;20.15;;;9.63;;
75993;SDS011;64680;53.800;9.988;2022-12-18T03:26:09;17.58;;;8.02;;
75993;SDS011;64680;53.800;9.988;2022-12-18T03:28:59;20.80;;;10.45;;
75993;SDS011;64680;53.800;9.988;2022-12-18T03:31:26;21.70;;;9.75;;
75993;SDS011;64680;53.800;9.988;2022-12-18T03:33:56;22.20;;;9.90;;
75993;SDS011;64680;53.800;9.988;2022-12-18T03:36:24;17.63;;;8.48;;
75993;SDS011;64680;53.800;9.988;2022-12-18T03:38:50;19.05;;;9.20;;
75993;SDS011;64680;53.800;9.988;2022-12-18T03:41:18;20.00;;;9.50;;
75993;SDS011;64680;53.800;9.988;2022-12-18T03:44:43;20.88;;;9.48;;
75993;SDS011;64680;53.800;9.988;2022-12-18T03:49:26;18.50;;;8.98;;
75993;SDS011;64680;53.800;9.988;2022-12-18T03:52:12;19.35;;;8.82;;
75993;SDS011;64680;53.800;9.988;2022-12-18T03:55:00;19.63;;;8.68;;
75993;SDS011;64680;53.800;9.988;2022-12-18T03:57:28;17.50;;;8.43;;
75993;SDS011;64680;53.800;9.988;2022-12-18T03:59:57;19.02;;;9.07;;
75993;SDS011;64680;53.800;9.988;2022-12-18T04:02:27;20.13;;;9.63;;
75993;SDS011;64680;53.800;9.988;2022-12-18T04:04:57;22.17;;;9.60;;
75993;SDS011;64680;53.800;9.988;2022-12-18T04:07:25;19.35;;;9.15;;
75993;SDS011;64680;53.800;9.988;2022-12-18T04:09:52;19.15;;;8.63;;
75993;SDS011;64680;53.800;9.988;2022-12-18T04:12:21;20.30;;;9.32;;
75993;SDS011;64680;53.800;9.988;2022-12-18T04:14:54;17.52;;;8.30;;
75993;SDS011;64680;53.800;9.988;2022-12-18T04:17:20;19.70;;;8.23;;
75993;SDS011;64680;53.800;9.988;2022-12-18T04:19:46;20.00;;;9.18;;
75993;SDS011;64680;53.800;9.988;2022-12-18T04:22:11;17.92;;;8.50;;
75993;SDS011;64680;53.800;9.988;2022-12-18T04:24:37;21.27;;;9.40;;
75993;SDS011;64680;53.800;9.988;2022-12-18T04:27:03;17.48;;;8.98;;
75993;SDS011;64680;53.800;9.988;2022-12-18T04:29:29;21.42;;;8.25;;
75993;SDS011;64680;53.800;9.988;2022-12-18T04:31:55;16.67;;;7.40;;
75993;SDS011;64680;53.800;9.988;2022-12-18T04:34:20;15.90;;;7.75;;
75993;SDS011;64680;53.800;9.988;2022-12-18T04:36:46;18.17;;;7.57;;
75993;SDS011;64680;53.800;9.988;2022-12-18T04:39:12;17.38;;;8.57;;
75993;SDS011;64680;53.800;9.988;2022-12-18T04:41:38;17.77;;;8.45;;
75993;SDS011;64680;53.800;9.988;2022-12-18T04:44:04;17.33;;;8.02;;
75993;SDS011;64680;53.800;9.988;2022-12-18T04:46:29;16.63;;;8.98;;
75993;SDS011;64680;53.800;9.988;2022-12-18T04:48:55;18.83;;;8.55;;
75993;SDS011;64680;53.800;9.988;2022-12-18T04:51:20;16.35;;;8.43;;
75993;SDS011;64680;53.800;9.988;2022-12-18T04:53:46;17.83;;;8.85;;
75993;SDS011;64680;53.800;9.988;2022-12-18T04:56:13;17.92;;;8.13;;
75993;SDS011;64680;53.800;9.988;2022-12-18T04:58:41;16.77;;;8.52;;
75993;SDS011;64680;53.800;9.988;2022-12-18T05:01:08;17.70;;;7.85;;
75993;SDS011;64680;53.800;9.988;2022-12-18T05:03:34;16.27;;;8.02;;
75993;SDS011;64680;53.800;9.988;2022-12-18T05:06:00;18.05;;;7.32;;
75993;SDS011;64680;53.800;9.988;2022-12-18T05:08:26;13.40;;;7.03;;
75993;SDS011;64680;53.800;9.988;2022-12-18T05:11:02;17.25;;;7.95;;
75993;SDS011;64680;53.800;9.988;2022-12-18T05:13:29;17.25;;;8.45;;
75993;SDS011;64680;53.800;9.988;2022-12-18T05:15:55;17.30;;;7.80;;
75993;SDS011;64680;53.800;9.988;2022-12-18T05:18:22;15.32;;;7.25;;
75993;SDS011;64680;53.800;9.988;2022-12-18T05:20:49;15.80;;;7.93;;
75993;SDS011;64680;53.800;9.988;2022-12-18T05:23:15;17.63;;;7.40;;
75993;SDS011;64680;53.800;9.988;2022-12-18T05:25:41;16.10;;;7.10;;
75993;SDS011;64680;53.800;9.988;2022-12-18T05:28:07;20.83;;;8.38;;
75993;SDS011;64680;53.800;9.988;2022-12-18T05:30:33;20.88;;;8.50;;
75993;SDS011;64680;53.800;9.988;2022-12-18T05:32:59;16.75;;;7.55;;
75993;SDS011;64680;53.800;9.988;2022-12-18T05:35:25;16.15;;;7.43;;
75993;SDS011;64680;53.800;9.988;2022-12-18T05:37:50;16.38;;;8.20;;
75993;SDS011;64680;53.800;9.988;2022-12-18T05:40:16;16.08;;;7.35;;
75993;SDS011;64680;53.800;9.988;2022-12-18T05:42:41;15.98;;;7.05;;
75993;SDS011;64680;53.800;9.988;2022-12-18T05:45:07;16.42;;;8.02;;
75993;SDS011;64680;53.800;9.988;2022-12-18T05:47:33;17.20;;;7.03;;
75993;SDS011;64680;53.800;9.988;2022-12-18T05:49:59;18.42;;;7.88;;
75993;SDS011;64680;53.800;9.988;2022-12-18T05:52:25;16.10;;;7.88;;
75993;SDS011;64680;53.800;9.988;2022-12-18T05:54:50;16.98;;;7.82;;
75993;SDS011;64680;53.800;9.988;2022-12-18T05:57:16;17.70;;;8.15;;
75993;SDS011;64680;53.800;9.988;2022-12-18T05:59:42;16.60;;;7.22;;
75993;SDS011;64680;53.800;9.988;2022-12-18T06:02:07;16.05;;;7.22;;
75993;SDS011;64680;53.800;9.988;2022-12-18T06:04:33;13.73;;;7.38;;
75993;SDS011;64680;53.800;9.988;2022-12-18T06:06:58;17.33;;;7.35;;
75993;SDS011;64680;53.800;9.988;2022-12-18T06:09:24;16.38;;;7.28;;
75993;SDS011;64680;53.800;9.988;2022-12-18T06:11:51;17.13;;;8.00;;
75993;SDS011;64680;53.800;9.988;2022-12-18T06:14:17;15.73;;;7.22;;
75993;SDS011;64680;53.800;9.988;2022-12-18T06:16:43;17.80;;;7.72;;
75993;SDS011;64680;53.800;9.988;2022-12-18T06:19:12;16.60;;;6.78;;
75993;SDS011;64680;53.800;9.988;2022-12-18T06:21:39;12.98;;;5.78;;
75993;SDS011;64680;53.800;9.988;2022-12-18T06:24:05;20.92;;;7.88;;
75993;SDS011;64680;53.800;9.988;2022-12-18T06:26:31;20.45;;;6.50;;
75993;SDS011;64680;53.800;9.988;2022-12-18T06:28:56;16.52;;;7.78;;
75993;SDS011;64680;53.800;9.988;2022-12-18T06:31:22;14.77;;;7.65;;
75993;SDS011;64680;53.800;9.988;2022-12-18T06:33:48;16.67;;;7.15;;
75993;SDS011;64680;53.800;9.988;2022-12-18T06:36:13;15.15;;;7.55;;
75993;SDS011;64680;53.800;9.988;2022-12-18T06:38:41;15.77;;;7.45;;
75993;SDS011;64680;53.800;9.988;2022-12-18T06:41:08;19.52;;;8.25;;
75993;SDS011;64680;53.800;9.988;2022-12-18T06:43:44;15.25;;;7.30;;
75993;SDS011;64680;53.800;9.988;2022-12-18T06:46:10;15.30;;;7.20;;
75993;SDS011;64680;53.800;9.988;2022-12-18T06:48:36;16.98;;;7.70;;
75993;SDS011;64680;53.800;9.988;2022-12-18T06:51:02;14.30;;;7.57;;
75993;SDS011;64680;53.800;9.988;2022-12-18T06:53:28;17.67;;;7.43;;
75993;SDS011;64680;53.800;9.988;2022-12-18T06:56:01;15.55;;;8.98;;
75993;SDS011;64680;53.800;9.988;2022-12-18T06:58:28;16.52;;;8.05;;
75993;SDS011;64680;53.800;9.988;2022-12-18T07:00:53;14.88;;;7.63;;
75993;SDS011;64680;53.800;9.988;2022-12-18T07:03:28;19.08;;;7.82;;
75993;SDS011;64680;53.800;9.988;2022-12-18T07:05:53;18.73;;;8.48;;
75993;SDS011;64680;53.800;9.988;2022-12-18T07:08:19;16.63;;;7.30;;
75993;SDS011;64680;53.800;9.988;2022-12-18T07:10:45;16.75;;;8.25;;
75993;SDS011;64680;53.800;9.988;2022-12-18T07:13:11;18.15;;;7.38;;
75993;SDS011;64680;53.800;9.988;2022-12-18T07:15:36;23.17;;;9.40;;
75993;SDS011;64680;53.800;9.988;2022-12-18T07:18:02;15.55;;;8.02;;
75993;SDS011;64680;53.800;9.988;2022-12-18T07:20:28;14.38;;;7.32;;
75993;SDS011;64680;53.800;9.988;2022-12-18T07:22:54;15.38;;;8.25;;
75993;SDS011;64680;53.800;9.988;2022-12-18T07:25:19;14.15;;;7.38;;
75993;SDS011;64680;53.800;9.988;2022-12-18T07:27:45;19.95;;;8.98;;
75993;SDS011;64680;53.800;9.988;2022-12-18T07:30:10;16.75;;;7.65;;
75993;SDS011;64680;53.800;9.988;2022-12-18T07:32:36;15.63;;;7.93;;
75993;SDS011;64680;53.800;9.988;2022-12-18T07:35:02;14.07;;;7.38;;
75993;SDS011;64680;53.800;9.988;2022-12-18T07:37:27;14.48;;;6.97;;
75993;SDS011;64680;53.800;9.988;2022-12-18T07:39:53;12.93;;;6.70;;
75993;SDS011;64680;53.800;9.988;2022-12-18T07:42:19;16.85;;;7.43;;
75993;SDS011;64680;53.800;9.988;2022-12-18T07:44:57;17.52;;;7.40;;
75993;SDS011;64680;53.800;9.988;2022-12-18T07:47:23;15.10;;;7.07;;
75993;SDS011;64680;53.800;9.988;2022-12-18T07:49:49;17.77;;;7.40;;
75993;SDS011;64680;53.800;9.988;2022-12-18T07:52:16;17.17;;;8.02;;
75993;SDS011;64680;53.800;9.988;2022-12-18T07:54:41;16.83;;;7.38;;
75993;SDS011;64680;53.800;9.988;2022-12-18T07:57:07;17.33;;;7.53;;
75993;SDS011;64680;53.800;9.988;2022-12-18T07:59:33;14.30;;;6.97;;
75993;SDS011;64680;53.800;9.988;2022-12-18T08:01:59;15.32;;;6.75;;
75993;SDS011;64680;53.800;9.988;2022-12-18T08:04:25;14.90;;;7.47;;
75993;SDS011;64680;53.800;9.988;2022-12-18T08:06:51;18.35;;;8.27;;
75993;SDS011;64680;53.800;9.988;2022-12-18T08:09:17;15.50;;;7.85;;
75993;SDS011;64680;53.800;9.988;2022-12-18T08:11:43;17.58;;;7.72;;
75993;SDS011;64680;53.800;9.988;2022-12-18T08:14:10;15.95;;;6.85;;
75993;SDS011;64680;53.800;9.988;2022-12-18T08:16:35;15.63;;;7.32;;
75993;SDS011;64680;53.800;9.988;2022-12-18T08:19:01;15.77;;;7.78;;
75993;SDS011;64680;53.800;9.988;2022-12-18T08:21:28;15.88;;;7.43;;
75993;SDS011;64680;53.800;9.988;2022-12-18T08:23:56;16.02;;;7.47;;
75993;SDS011;64680;53.800;9.988;2022-12-18T08:26:23;15.50;;;8.57;;
75993;SDS011;64680;53.800;9.988;2022-12-18T08:28:50;18.13;;;8.20;;
75993;SDS011;64680;53.800;9.988;2022-12-18T08:31:17;17.08;;;8.50;;
75993;SDS011;64680;53.800;9.988;2022-12-18T08:33:43;16.40;;;7.55;;
75993;SDS011;64680;53.800;9.988;2022-12-18T08:36:09;16.23;;;7.90;;
75993;SDS011;64680;53.800;9.988;2022-12-18T08:38:35;15.40;;;8.15;;
75993;SDS011;64680;53.800;9.988;2022-12-18T08:41:05;18.27;;;9.27;;
75993;SDS011;64680;53.800;9.988;2022-12-18T08:43:32;16.45;;;7.72;;
75993;SDS011;64680;53.800;9.988;2022-12-18T08:46:17;17.13;;;7.90;;
75993;SDS011;64680;53.800;9.988;2022-12-18T08:48:44;19.65;;;8.15;;
75993;SDS011;64680;53.800;9.988;2022-12-18T08:51:10;16.08;;;8.10;;
75993;SDS011;64680;53.800;9.988;2022-12-18T08:53:36;16.50;;;8.75;;
75993;SDS011;64680;53.800;9.988;2022-12-18T08:56:02;18.80;;;9.05;;
75993;SDS011;64680;53.800;9.988;2022-12-18T08:58:28;18.77;;;8.32;;
75993;SDS011;64680;53.800;9.988;2022-12-18T09:00:54;16.70;;;7.85;;
75993;SDS011;64680;53.800;9.988;2022-12-18T09:03:24;20.58;;;8.73;;
75993;SDS011;64680;53.800;9.988;2022-12-18T09:05:49;19.50;;;7.78;;
75993;SDS011;64680;53.800;9.988;2022-12-18T09:08:15;16.83;;;7.63;;
75993;SDS011;64680;53.800;9.988;2022-12-18T09:10:41;16.85;;;7.53;;
75993;SDS011;64680;53.800;9.988;2022-12-18T09:13:09;19.60;;;8.55;;
75993;SDS011;64680;53.800;9.988;2022-12-18T09:15:39;16.52;;;8.00;;
75993;SDS011;64680;53.800;9.988;2022-12-18T09:18:06;16.73;;;8.48;;
75993;SDS011;64680;53.800;9.988;2022-12-18T09:20:32;16.25;;;8.68;;
75993;SDS011;64680;53.800;9.988;2022-12-18T09:22:57;15.35;;;7.93;;
75993;SDS011;64680;53.800;9.988;2022-12-18T09:25:23;17.13;;;8.43;;
75993;SDS011;64680;53.800;9.988;2022-12-18T09:27:48;18.17;;;9.32;;
75993;SDS011;64680;53.800;9.988;2022-12-18T09:30:14;16.75;;;8.88;;
75993;SDS011;64680;53.800;9.988;2022-12-18T09:32:40;16.30;;;8.02;;
75993;SDS011;64680;53.800;9.988;2022-12-18T09:35:05;14.07;;;7.93;;
75993;SDS011;64680;53.800;9.988;2022-12-18T09:37:31;17.88;;;8.50;;
75993;SDS011;64680;53.800;9.988;2022-12-18T09:39:57;18.42;;;8.52;;
75993;SDS011;64680;53.800;9.988;2022-12-18T09:42:22;17.30;;;8.70;;
75993;SDS011;64680;53.800;9.988;2022-12-18T09:44:50;14.55;;;7.60;;
75993;SDS011;64680;53.800;9.988;2022-12-18T09:47:25;18.42;;;7.80;;
75993;SDS011;64680;53.800;9.988;2022-12-18T09:49:58;17.77;;;7.45;;
75993;SDS011;64680;53.800;9.988;2022-12-18T09:52:28;17.63;;;7.60;;
75993;SDS011;64680;53.800;9.988;2022-12-18T09:55:03;18.85;;;7.65;;
75993;SDS011;64680;53.800;9.988;2022-12-18T09:57:37;15.15;;;7.30;;
75993;SDS011;64680;53.800;9.988;2022-12-18T10:00:17;16.10;;;7.68;;
75993;SDS011;64680;53.800;9.988;2022-12-18T10:02:46;19.33;;;7.78;;
75993;SDS011;64680;53.800;9.988;2022-12-18T10:10:51;12.93;;;6.43;;
75993;SDS011;64680;53.800;9.988;2022-12-18T10:15:58;12.52;;;7.28;;
75993;SDS011;64680;53.800;9.988;2022-12-18T10:21:25;12.68;;;6.65;;
75993;SDS011;64680;53.800;9.988;2022-12-18T10:24:03;14.38;;;6.75;;
75993;SDS011;64680;53.800;9.988;2022-12-18T10:26:55;13.98;;;6.78;;
75993;SDS011;64680;53.800;9.988;2022-12-18T10:29:50;12.00;;;6.38;;
75993;SDS011;64680;53.800;9.988;2022-12-18T10:32:17;15.50;;;6.57;;
75993;SDS011;64680;53.800;9.988;2022-12-18T10:34:54;14.10;;;6.75;;
75993;SDS011;64680;53.800;9.988;2022-12-18T10:37:23;12.10;;;6.38;;
75993;SDS011;64680;53.800;9.988;2022-12-18T10:42:30;11.85;;;6.30;;
75993;SDS011;64680;53.800;9.988;2022-12-18T10:45:30;16.75;;;6.85;;
75993;SDS011;64680;53.800;9.988;2022-12-18T10:47:49;14.02;;;6.60;;
75993;SDS011;64680;53.800;9.988;2022-12-18T10:50:34;15.90;;;6.60;;
75993;SDS011;64680;53.800;9.988;2022-12-18T10:53:03;13.05;;;6.65;;
75993;SDS011;64680;53.800;9.988;2022-12-18T10:55:39;12.52;;;5.82;;
75993;SDS011;64680;53.800;9.988;2022-12-18T11:03:46;14.95;;;6.78;;
75993;SDS011;64680;53.800;9.988;2022-12-18T11:06:18;13.35;;;6.50;;
75993;SDS011;64680;53.800;9.988;2022-12-18T11:08:59;14.48;;;6.78;;
75993;SDS011;64680;53.800;9.988;2022-12-18T11:11:29;12.90;;;6.68;;
75993;SDS011;64680;53.800;9.988;2022-12-18T11:14:06;13.98;;;6.47;;
75993;SDS011;64680;53.800;9.988;2022-12-18T11:16:43;10.85;;;5.38;;
75993;SDS011;64680;53.800;9.988;2022-12-18T11:22:03;10.65;;;5.68;;
75993;SDS011;64680;53.800;9.988;2022-12-18T11:24:49;11.00;;;5.68;;
75993;SDS011;64680;53.800;9.988;2022-12-18T11:27:19;11.50;;;5.45;;
75993;SDS011;64680;53.800;9.988;2022-12-18T11:29:45;11.40;;;6.00;;
75993;SDS011;64680;53.800;9.988;2022-12-18T11:34:39;11.32;;;6.13;;
75993;SDS011;64680;53.800;9.988;2022-12-18T11:37:11;13.98;;;6.35;;
75993;SDS011;64680;53.800;9.988;2022-12-18T11:42:40;12.82;;;6.32;;
75993;SDS011;64680;53.800;9.988;2022-12-18T11:47:57;12.95;;;6.35;;
75993;SDS011;64680;53.800;9.988;2022-12-18T11:50:46;10.80;;;5.55;;
75993;SDS011;64680;53.800;9.988;2022-12-18T11:53:13;10.18;;;5.70;;
75993;SDS011;64680;53.800;9.988;2022-12-18T12:11:49;10.82;;;5.35;;
75993;SDS011;64680;53.800;9.988;2022-12-18T12:14:33;10.38;;;5.22;;
75993;SDS011;64680;53.800;9.988;2022-12-18T12:30:43;15.15;;;5.70;;
75993;SDS011;64680;53.800;9.988;2022-12-18T12:38:55;9.35;;;4.32;;
75993;SDS011;64680;53.800;9.988;2022-12-18T12:41:25;11.27;;;5.53;;
75993;SDS011;64680;53.800;9.988;2022-12-18T12:44:19;10.93;;;5.72;;
75993;SDS011;64680;53.800;9.988;2022-12-18T12:46:51;8.48;;;4.50;;
75993;SDS011;64680;53.800;9.988;2022-12-18T12:49:25;11.15;;;4.82;;
75993;SDS011;64680;53.800;9.988;2022-12-18T12:52:15;14.43;;;5.45;;
75993;SDS011;64680;53.800;9.988;2022-12-18T12:54:52;11.57;;;5.68;;
75993;SDS011;64680;53.800;9.988;2022-12-18T12:57:33;13.05;;;6.55;;
75993;SDS011;64680;53.800;9.988;2022-12-18T13:08:06;13.07;;;6.53;;
75993;SDS011;64680;53.800;9.988;2022-12-18T13:13:05;16.35;;;7.28;;
75993;SDS011;64680;53.800;9.988;2022-12-18T13:15:44;14.25;;;6.20;;
75993;SDS011;64680;53.800;9.988;2022-12-18T13:20:41;12.35;;;6.10;;
75993;SDS011;64680;53.800;9.988;2022-12-18T13:25:53;13.63;;;6.78;;
75993;SDS011;64680;53.800;9.988;2022-12-18T13:28:53;14.73;;;6.25;;
75993;SDS011;64680;53.800;9.988;2022-12-18T13:31:12;12.20;;;5.93;;
75993;SDS011;64680;53.800;9.988;2022-12-18T13:33:47;12.02;;;5.53;;
75993;SDS011;64680;53.800;9.988;2022-12-18T13:38:47;12.93;;;5.75;;
75993;SDS011;64680;53.800;9.988;2022-12-18T13:41:39;14.25;;;6.28;;
75993;SDS011;64680;53.800;9.988;2022-12-18T13:47:24;14.40;;;6.05;;
75993;SDS011;64680;53.800;9.988;2022-12-18T13:50:09;13.30;;;5.35;;
75993;SDS011;64680;53.800;9.988;2022-12-18T13:52:50;11.88;;;5.53;;
75993;SDS011;64680;53.800;9.988;2022-12-18T13:55:18;14.88;;;6.82;;
75993;SDS011;64680;53.800;9.988;2022-12-18T13:57:45;13.98;;;6.15;;
75993;SDS011;64680;53.800;9.988;2022-12-18T14:00:27;15.95;;;6.82;;
75993;SDS011;64680;53.800;9.988;2022-12-18T14:02:54;12.73;;;6.28;;
75993;SDS011;64680;53.800;9.988;2022-12-18T14:05:25;14.40;;;6.00;;
75993;SDS011;64680;53.800;9.988;2022-12-18T14:07:51;14.30;;;6.82;;
75993;SDS011;64680;53.800;9.988;2022-12-18T14:10:17;16.23;;;7.28;;
75993;SDS011;64680;53.800;9.988;2022-12-18T14:12:47;15.55;;;6.03;;
75993;SDS011;64680;53.800;9.988;2022-12-18T14:20:19;22.00;;;8.30;;
75993;SDS011;64680;53.800;9.988;2022-12-18T14:22:46;14.30;;;7.20;;
75993;SDS011;64680;53.800;9.988;2022-12-18T14:25:20;14.75;;;6.88;;
75993;SDS011;64680;53.800;9.988;2022-12-18T14:27:51;19.65;;;7.40;;
75993;SDS011;64680;53.800;9.988;2022-12-18T14:33:03;18.95;;;7.85;;
75993;SDS011;64680;53.800;9.988;2022-12-18T14:35:34;21.58;;;9.00;;
75993;SDS011;64680;53.800;9.988;2022-12-18T14:41:04;18.77;;;8.38;;
75993;SDS011;64680;53.800;9.988;2022-12-18T14:43:41;23.63;;;8.75;;
75993;SDS011;64680;53.800;9.988;2022-12-18T14:51:54;21.20;;;8.38;;
75993;SDS011;64680;53.800;9.988;2022-12-18T14:54:27;24.67;;;9.27;;
75993;SDS011;64680;53.800;9.988;2022-12-18T14:57:01;24.95;;;9.98;;
75993;SDS011;64680;53.800;9.988;2022-12-18T14:59:42;24.42;;;8.93;;
75993;SDS011;64680;53.800;9.988;2022-12-18T15:05:03;22.08;;;8.27;;
75993;SDS011;64680;53.800;9.988;2022-12-18T15:07:45;24.92;;;10.07;;
75993;SDS011;64680;53.800;9.988;2022-12-18T15:18:13;27.63;;;9.52;;
75993;SDS011;64680;53.800;9.988;2022-12-18T15:21:07;29.67;;;10.98;;
75993;SDS011;64680;53.800;9.988;2022-12-18T15:26:09;23.15;;;9.13;;
75993;SDS011;64680;53.800;9.988;2022-12-18T15:28:38;27.00;;;9.77;;
75993;SDS011;64680;53.800;9.988;2022-12-18T15:33:37;27.70;;;10.25;;
75993;SDS011;64680;53.800;9.988;2022-12-18T15:36:05;31.50;;;10.98;;
75993;SDS011;64680;53.800;9.988;2022-12-18T15:38:35;24.92;;;10.55;;
75993;SDS011;64680;53.800;9.988;2022-12-18T15:41:01;29.80;;;11.30;;
75993;SDS011;64680;53.800;9.988;2022-12-18T15:43:30;26.30;;;9.52;;
75993;SDS011;64680;53.800;9.988;2022-12-18T15:48:42;25.70;;;9.70;;
75993;SDS011;64680;53.800;9.988;2022-12-18T15:51:19;27.90;;;10.20;;
75993;SDS011;64680;53.800;9.988;2022-12-18T15:53:47;30.58;;;10.43;;
75993;SDS011;64680;53.800;9.988;2022-12-18T15:56:15;21.67;;;9.00;;
75993;SDS011;64680;53.800;9.988;2022-12-18T15:59:00;30.60;;;11.13;;
75993;SDS011;64680;53.800;9.988;2022-12-18T16:01:28;30.98;;;11.18;;
75993;SDS011;64680;53.800;9.988;2022-12-18T16:03:56;31.38;;;11.88;;
75993;SDS011;64680;53.800;9.988;2022-12-18T16:06:22;27.42;;;10.50;;
75993;SDS011;64680;53.800;9.988;2022-12-18T16:08:48;27.85;;;9.40;;
75993;SDS011;64680;53.800;9.988;2022-12-18T16:11:24;28.38;;;9.82;;
75993;SDS011;64680;53.800;9.988;2022-12-18T16:14:20;37.55;;;10.70;;
75993;SDS011;64680;53.800;9.988;2022-12-18T16:16:48;33.90;;;12.38;;
75993;SDS011;64680;53.800;9.988;2022-12-18T16:19:16;30.92;;;10.90;;
75993;SDS011;64680;53.800;9.988;2022-12-18T16:21:42;30.60;;;11.23;;
75993;SDS011;64680;53.800;9.988;2022-12-18T16:24:18;33.13;;;10.68;;
75993;SDS011;64680;53.800;9.988;2022-12-18T16:26:46;32.10;;;11.18;;
75993;SDS011;64680;53.800;9.988;2022-12-18T16:29:13;34.45;;;11.52;;
75993;SDS011;64680;53.800;9.988;2022-12-18T16:31:39;28.73;;;10.50;;
75993;SDS011;64680;53.800;9.988;2022-12-18T16:36:54;37.83;;;11.80;;
75993;SDS011;64680;53.800;9.988;2022-12-18T16:39:21;31.75;;;11.10;;
75993;SDS011;64680;53.800;9.988;2022-12-18T16:41:47;32.78;;;10.98;;
75993;SDS011;64680;53.800;9.988;2022-12-18T16:44:13;30.23;;;11.02;;
75993;SDS011;64680;53.800;9.988;2022-12-18T16:46:39;30.52;;;10.88;;
75993;SDS011;64680;53.800;9.988;2022-12-18T16:49:08;30.38;;;11.43;;
75993;SDS011;64680;53.800;9.988;2022-12-18T16:51:35;32.88;;;13.15;;
75993;SDS011;64680;53.800;9.988;2022-12-18T16:54:01;34.33;;;11.68;;
75993;SDS011;64680;53.800;9.988;2022-12-18T16:56:26;31.65;;;11.18;;
75993;SDS011;64680;53.800;9.988;2022-12-18T16:58:52;31.52;;;12.02;;
75993;SDS011;64680;53.800;9.988;2022-12-18T17:01:19;34.50;;;12.40;;
75993;SDS011;64680;53.800;9.988;2022-12-18T17:03:52;36.28;;;13.05;;
75993;SDS011;64680;53.800;9.988;2022-12-18T17:06:25;36.88;;;13.35;;
75993;SDS011;64680;53.800;9.988;2022-12-18T17:08:55;33.58;;;12.65;;
75993;SDS011;64680;53.800;9.988;2022-12-18T17:11:23;33.67;;;11.70;;
75993;SDS011;64680;53.800;9.988;2022-12-18T17:13:50;33.22;;;12.50;;